createdAt,value
2022-10-15T00:00:01.205Z,1003.96
2022-10-15T00:01:01.570Z,1003.94
2022-10-15T00:02:01.274Z,1003.99
2022-10-15T00:03:01.088Z,1003.98
2022-10-15T00:05:01.283Z,1003.97
2022-10-15T00:06:01.226Z,1003.96
2022-10-15T00:07:01.031Z,1003.90
2022-10-15T00:08:00.965Z,1003.91
2022-10-15T00:09:00.992Z,1003.93
2022-10-15T00:10:00.918Z,1003.89
2022-10-15T00:11:00.888Z,1003.94
2022-10-15T00:12:00.897Z,1003.92
2022-10-15T00:14:00.909Z,1003.88
2022-10-15T00:15:01.780Z,1003.90
2022-10-15T00:16:00.807Z,1003.89
2022-10-15T00:17:00.811Z,1003.84
2022-10-15T00:18:00.799Z,1003.85
2022-10-15T00:19:00.809Z,1003.86
2022-10-15T00:20:00.838Z,1003.85
2022-10-15T00:21:00.769Z,1003.83
2022-10-15T00:22:22.091Z,1003.90
2022-10-15T00:23:00.748Z,1003.85
2022-10-15T00:24:01.639Z,1003.86
2022-10-15T00:25:00.781Z,1003.91
2022-10-15T00:26:00.677Z,1003.88
2022-10-15T00:27:01.626Z,1003.91
2022-10-15T00:28:01.510Z,1003.89
2022-10-15T00:29:00.699Z,1003.88
2022-10-15T00:30:01.579Z,1003.86
2022-10-15T00:31:00.704Z,1003.85
2022-10-15T00:32:00.650Z,1003.85
2022-10-15T00:33:01.589Z,1003.84
2022-10-15T00:34:01.441Z,1003.87
2022-10-15T00:35:00.655Z,1003.83
2022-10-15T00:36:00.602Z,1003.82
2022-10-15T00:37:00.944Z,1003.82
2022-10-15T00:38:00.530Z,1003.82
2022-10-15T00:39:00.874Z,1003.80
2022-10-15T00:41:00.912Z,1003.83
2022-10-15T00:42:00.874Z,1003.77
2022-10-15T00:43:01.355Z,1003.80
2022-10-15T00:44:00.424Z,1003.81
2022-10-15T00:45:00.486Z,1003.82
2022-10-15T00:46:00.465Z,1003.79
2022-10-15T00:47:00.587Z,1003.76
2022-10-15T00:48:00.584Z,1003.84
2022-10-15T00:49:01.387Z,1003.80
2022-10-15T00:50:00.467Z,1003.82
2022-10-15T00:51:01.138Z,1003.82
2022-10-15T00:52:00.416Z,1003.78
2022-10-15T00:53:01.218Z,1003.74
2022-10-15T00:54:00.296Z,1003.71
2022-10-15T00:55:01.727Z,1003.74
2022-10-15T00:56:01.129Z,1003.72
2022-10-15T00:57:00.353Z,1003.75
2022-10-15T00:58:01.342Z,1003.69
2022-10-15T00:59:00.235Z,1003.74
2022-10-15T01:00:00.290Z,1003.70
2022-10-15T01:01:00.274Z,1003.68
2022-10-15T01:02:00.171Z,1003.71
2022-10-15T01:03:00.961Z,1003.65
2022-10-15T01:04:01.150Z,1003.65
2022-10-15T01:05:01.033Z,1003.64
2022-10-15T01:06:00.133Z,1003.64
2022-10-15T01:07:01.098Z,1003.63
2022-10-15T01:08:00.123Z,1003.63
2022-10-15T01:09:00.126Z,1003.62
2022-10-15T01:10:00.871Z,1003.60
2022-10-15T01:11:00.115Z,1003.62
2022-10-15T01:12:00.101Z,1003.61
2022-10-15T01:13:00.080Z,1003.56
2022-10-15T01:14:00.056Z,1003.63
2022-10-15T01:15:00.103Z,1003.54
2022-10-15T01:16:00.772Z,1003.50
2022-10-15T01:16:59.975Z,1003.56
2022-10-15T01:18:00.112Z,1003.59
2022-10-15T01:19:00.715Z,1003.53
2022-10-15T01:20:00.877Z,1003.49
2022-10-15T01:21:00.105Z,1003.52
2022-10-15T01:22:00.684Z,1003.58
2022-10-15T01:23:00.835Z,1003.59
2022-10-15T01:24:00.755Z,1003.58
2022-10-15T01:25:00.760Z,1003.55
2022-10-15T01:25:59.856Z,1003.57
2022-10-15T01:26:59.807Z,1003.53
2022-10-15T01:27:59.788Z,1003.49
2022-10-15T01:28:59.860Z,1003.51
2022-10-15T01:30:00.735Z,1003.51
2022-10-15T01:31:00.578Z,1003.51
2022-10-15T01:32:00.179Z,1003.47
2022-10-15T01:32:59.714Z,1003.48
2022-10-15T01:34:00.142Z,1003.53
2022-10-15T01:35:00.715Z,1003.51
2022-10-15T01:36:02.553Z,1003.56
2022-10-15T01:37:00.669Z,1003.52
2022-10-15T01:37:59.709Z,1003.51
2022-10-15T01:38:59.836Z,1003.48
2022-10-15T01:40:00.118Z,1003.46
2022-10-15T01:41:00.294Z,1003.41
2022-10-15T01:42:00.051Z,1003.42
2022-10-15T01:43:00.340Z,1003.50
2022-10-15T01:43:59.562Z,1003.49
2022-10-15T01:44:59.551Z,1003.46
2022-10-15T01:45:59.512Z,1003.48
2022-10-15T01:46:59.567Z,1003.50
2022-10-15T01:47:59.853Z,1003.51
2022-10-15T01:48:59.514Z,1003.49
2022-10-15T01:49:59.605Z,1003.48
2022-10-15T01:51:00.451Z,1003.45
2022-10-15T01:51:59.463Z,1003.47
2022-10-15T01:52:59.440Z,1003.48
2022-10-15T01:53:59.449Z,1003.47
2022-10-15T01:54:59.413Z,1003.49
2022-10-15T01:55:59.392Z,1003.48
2022-10-15T01:56:59.516Z,1003.52
2022-10-15T01:57:59.687Z,1003.46
2022-10-15T01:58:59.455Z,1003.44
2022-10-15T01:59:59.617Z,1003.45
2022-10-15T02:00:59.714Z,1003.44
2022-10-15T02:01:59.325Z,1003.41
2022-10-15T02:02:59.766Z,1003.45
2022-10-15T02:04:00.097Z,1003.45
2022-10-15T02:04:59.319Z,1003.44
2022-10-15T02:05:59.322Z,1003.46
2022-10-15T02:06:59.610Z,1003.51
2022-10-15T02:07:59.498Z,1003.48
2022-10-15T02:08:59.501Z,1003.53
2022-10-15T02:09:59.245Z,1003.53
2022-10-15T02:10:59.224Z,1003.51
2022-10-15T02:11:59.449Z,1003.51
2022-10-15T02:12:59.240Z,1003.49
2022-10-15T02:13:59.152Z,1003.52
2022-10-15T02:14:59.175Z,1003.57
2022-10-15T02:15:59.167Z,1003.52
2022-10-15T02:16:59.152Z,1003.52
2022-10-15T02:17:59.196Z,1003.51
2022-10-15T02:18:59.144Z,1003.55
2022-10-15T02:21:00.521Z,1003.58
2022-10-15T02:21:59.036Z,1003.58
2022-10-15T02:22:59.942Z,1003.60
2022-10-15T02:23:59.035Z,1003.56
2022-10-15T02:24:59.020Z,1003.57
2022-10-15T02:25:59.000Z,1003.61
2022-10-15T02:26:58.981Z,1003.62
2022-10-15T02:27:59.000Z,1003.58
2022-10-15T02:28:59.060Z,1003.57
2022-10-15T02:29:59.798Z,1003.58
2022-10-15T02:30:58.929Z,1003.57
2022-10-15T02:31:59.875Z,1003.54
2022-10-15T02:32:59.779Z,1003.53
2022-10-15T02:33:58.931Z,1003.56
2022-10-15T02:34:58.868Z,1003.55
2022-10-15T02:35:59.717Z,1003.52
2022-10-15T02:36:59.618Z,1003.45
2022-10-15T02:37:59.818Z,1003.44
2022-10-15T02:38:58.839Z,1003.47
2022-10-15T02:39:59.597Z,1003.45
2022-10-15T02:40:58.801Z,1003.42
2022-10-15T02:41:58.761Z,1003.39
2022-10-15T02:42:58.739Z,1003.38
2022-10-15T02:43:58.796Z,1003.43
2022-10-15T02:44:58.759Z,1003.43
2022-10-15T02:45:59.178Z,1003.38
2022-10-15T02:46:59.155Z,1003.40
2022-10-15T02:47:59.131Z,1003.39
2022-10-15T02:48:59.232Z,1003.39
2022-10-15T02:49:59.655Z,1003.38
2022-10-15T02:50:58.634Z,1003.39
2022-10-15T02:51:58.699Z,1003.41
2022-10-15T02:52:58.593Z,1003.46
2022-10-15T02:53:59.523Z,1003.47
2022-10-15T02:55:00.072Z,1003.49
2022-10-15T02:55:58.562Z,1003.49
2022-10-15T02:56:58.553Z,1003.45
2022-10-15T02:57:58.543Z,1003.47
2022-10-15T02:58:58.567Z,1003.42
2022-10-15T02:59:58.597Z,1003.47
2022-10-15T03:00:59.434Z,1003.48
2022-10-15T03:01:58.544Z,1003.52
2022-10-15T03:02:58.465Z,1003.46
2022-10-15T03:03:58.467Z,1003.47
2022-10-15T03:04:58.486Z,1003.43
2022-10-15T03:05:58.442Z,1003.47
2022-10-15T03:06:58.425Z,1003.45
2022-10-15T03:07:59.207Z,1003.46
2022-10-15T03:08:58.376Z,1003.48
2022-10-15T03:09:58.476Z,1003.49
2022-10-15T03:10:59.193Z,1003.53
2022-10-15T03:11:59.175Z,1003.53
2022-10-15T03:12:59.237Z,1003.58
2022-10-15T03:13:58.326Z,1003.56
2022-10-15T03:14:58.267Z,1003.57
2022-10-15T03:15:59.208Z,1003.59
2022-10-15T03:16:58.287Z,1003.63
2022-10-15T03:17:59.083Z,1003.61
2022-10-15T03:18:59.243Z,1003.63
2022-10-15T03:19:59.096Z,1003.64
2022-10-15T03:20:58.287Z,1003.59
2022-10-15T03:21:58.168Z,1003.64
2022-10-15T03:22:59.052Z,1003.62
2022-10-15T03:23:58.170Z,1003.61
2022-10-15T03:24:58.212Z,1003.63
2022-10-15T03:25:58.280Z,1003.64
2022-10-15T03:26:58.376Z,1003.69
2022-10-15T03:27:58.081Z,1003.64
2022-10-15T03:28:58.772Z,1003.65
2022-10-15T03:29:58.906Z,1003.67
2022-10-15T03:30:58.539Z,1003.66
2022-10-15T03:31:58.951Z,1003.68
2022-10-15T03:32:58.852Z,1003.63
2022-10-15T03:33:58.081Z,1003.61
2022-10-15T03:34:58.713Z,1003.63
2022-10-15T03:35:57.982Z,1003.62
2022-10-15T03:36:58.742Z,1003.63
2022-10-15T03:37:58.884Z,1003.64
2022-10-15T03:38:58.812Z,1003.63
2022-10-15T03:39:57.942Z,1003.65
2022-10-15T03:40:57.904Z,1003.60
2022-10-15T03:41:57.964Z,1003.60
2022-10-15T03:42:57.889Z,1003.60
2022-10-15T03:43:57.853Z,1003.59
2022-10-15T03:44:57.865Z,1003.59
2022-10-15T03:45:57.872Z,1003.60
2022-10-15T03:46:57.835Z,1003.61
2022-10-15T03:47:57.843Z,1003.60
2022-10-15T03:48:58.604Z,1003.61
2022-10-15T03:49:57.806Z,1003.62
2022-10-15T03:50:57.883Z,1003.61
2022-10-15T03:51:57.807Z,1003.64
2022-10-15T03:52:57.757Z,1003.62
2022-10-15T03:53:57.887Z,1003.64
2022-10-15T03:54:57.856Z,1003.63
2022-10-15T03:55:59.178Z,1003.65
2022-10-15T03:56:57.699Z,1003.64
2022-10-15T03:57:58.498Z,1003.64
2022-10-15T03:58:58.417Z,1003.65
2022-10-15T03:59:57.899Z,1003.63
2022-10-15T04:00:57.954Z,1003.65
2022-10-15T04:01:58.379Z,1003.70
2022-10-15T04:02:57.620Z,1003.72
2022-10-15T04:03:57.604Z,1003.72
2022-10-15T04:04:57.591Z,1003.73
2022-10-15T04:05:59.921Z,1003.73
2022-10-15T04:06:57.859Z,1003.71
2022-10-15T04:07:58.314Z,1003.77
2022-10-15T04:08:57.987Z,1003.76
2022-10-15T04:09:58.370Z,1003.78
2022-10-15T04:10:57.860Z,1003.79
2022-10-15T04:11:57.934Z,1003.80
2022-10-15T04:12:58.341Z,1003.76
2022-10-15T04:13:58.250Z,1003.80
2022-10-15T04:14:59.495Z,1003.78
2022-10-15T04:15:58.314Z,1003.80
2022-10-15T04:16:58.225Z,1003.86
2022-10-15T04:17:57.392Z,1003.84
2022-10-15T04:18:57.444Z,1003.85
2022-10-15T04:19:57.873Z,1003.80
2022-10-15T04:20:57.926Z,1003.82
2022-10-15T04:21:57.893Z,1003.80
2022-10-15T04:22:57.864Z,1003.85
2022-10-15T04:23:57.333Z,1003.86
2022-10-15T04:24:57.337Z,1003.86
2022-10-15T04:25:57.864Z,1003.92
2022-10-15T04:26:57.275Z,1003.90
2022-10-15T04:27:58.726Z,1003.82
2022-10-15T04:28:57.287Z,1003.81
2022-10-15T04:29:57.224Z,1003.81
2022-10-15T04:30:57.214Z,1003.80
2022-10-15T04:31:58.054Z,1003.80
2022-10-15T04:32:57.955Z,1003.80
2022-10-15T04:33:57.213Z,1003.79
2022-10-15T04:34:58.030Z,1003.81
2022-10-15T04:35:57.928Z,1003.82
2022-10-15T04:36:58.099Z,1003.83
2022-10-15T04:37:57.988Z,1003.79
2022-10-15T04:38:57.108Z,1003.75
2022-10-15T04:39:58.057Z,1003.78
2022-10-15T04:40:57.957Z,1003.74
2022-10-15T04:41:57.059Z,1003.78
2022-10-15T04:42:57.037Z,1003.81
2022-10-15T04:43:57.097Z,1003.83
2022-10-15T04:44:57.828Z,1003.84
2022-10-15T04:45:57.209Z,1003.82
2022-10-15T04:46:56.968Z,1003.80
2022-10-15T04:47:56.956Z,1003.86
2022-10-15T04:48:57.039Z,1003.82
2022-10-15T04:49:57.190Z,1003.83
2022-10-15T04:50:57.770Z,1003.78
2022-10-15T04:51:57.221Z,1003.83
2022-10-15T04:52:57.182Z,1003.83
2022-10-15T04:53:57.170Z,1003.80
2022-10-15T04:55:00.350Z,1003.79
2022-10-15T04:55:57.201Z,1003.78
2022-10-15T04:56:57.181Z,1003.80
2022-10-15T04:57:57.602Z,1003.75
2022-10-15T04:58:56.832Z,1003.75
2022-10-15T04:59:57.914Z,1003.75
2022-10-15T05:00:56.871Z,1003.78
2022-10-15T05:01:56.979Z,1003.78
2022-10-15T05:02:57.642Z,1003.75
2022-10-15T05:03:57.544Z,1003.73
2022-10-15T05:04:57.104Z,1003.75
2022-10-15T05:05:57.612Z,1003.73
2022-10-15T05:06:58.142Z,1003.73
2022-10-15T05:07:57.672Z,1003.72
2022-10-15T05:08:56.723Z,1003.76
2022-10-15T05:09:57.477Z,1003.81
2022-10-15T05:10:56.663Z,1003.81
2022-10-15T05:11:56.624Z,1003.80
2022-10-15T05:12:57.446Z,1003.84
2022-10-15T05:13:56.644Z,1003.88
2022-10-15T05:14:56.607Z,1003.88
2022-10-15T05:15:56.740Z,1003.86
2022-10-15T05:16:56.663Z,1003.92
2022-10-15T05:17:56.804Z,1003.89
2022-10-15T05:18:56.545Z,1003.90
2022-10-15T05:19:56.506Z,1003.95
2022-10-15T05:20:56.672Z,1003.93
2022-10-15T05:21:57.367Z,1003.95
2022-10-15T05:22:56.576Z,1003.95
2022-10-15T05:23:56.458Z,1003.93
2022-10-15T05:24:56.447Z,1003.96
2022-10-15T05:25:56.569Z,1003.95
2022-10-15T05:26:56.659Z,1003.98
2022-10-15T05:27:56.649Z,1003.95
2022-10-15T05:28:56.668Z,1003.96
2022-10-15T05:29:56.365Z,1004.01
2022-10-15T05:30:56.354Z,1003.99
2022-10-15T05:31:56.378Z,1003.99
2022-10-15T05:32:56.480Z,1004.01
2022-10-15T05:33:56.281Z,1004.03
2022-10-15T05:34:56.502Z,1004.08
2022-10-15T05:35:56.580Z,1004.11
2022-10-15T05:36:56.249Z,1004.10
2022-10-15T05:37:56.302Z,1004.07
2022-10-15T05:38:56.233Z,1004.12
2022-10-15T05:39:56.213Z,1004.15
2022-10-15T05:40:56.183Z,1004.13
2022-10-15T05:41:56.202Z,1004.12
2022-10-15T05:42:56.227Z,1004.09
2022-10-15T05:43:56.149Z,1004.11
2022-10-15T05:44:56.143Z,1004.08
2022-10-15T05:45:56.137Z,1004.07
2022-10-15T05:46:56.135Z,1004.13
2022-10-15T05:47:56.094Z,1004.16
2022-10-15T05:48:56.110Z,1004.11
2022-10-15T05:49:56.079Z,1004.15
2022-10-15T05:50:56.038Z,1004.17
2022-10-15T05:52:56.113Z,1004.21
2022-10-15T05:53:56.106Z,1004.19
2022-10-15T05:54:55.997Z,1004.22
2022-10-15T05:55:56.127Z,1004.18
2022-10-15T05:56:56.104Z,1004.26
2022-10-15T05:57:56.148Z,1004.24
2022-10-15T05:58:56.271Z,1004.26
2022-10-15T05:59:56.105Z,1004.22
2022-10-15T06:00:56.676Z,1004.23
2022-10-15T06:01:56.013Z,1004.24
2022-10-15T06:02:56.001Z,1004.27
2022-10-15T06:03:56.651Z,1004.24
2022-10-15T06:04:55.877Z,1004.29
2022-10-15T06:05:55.869Z,1004.30
2022-10-15T06:06:56.620Z,1004.29
2022-10-15T06:07:55.872Z,1004.34
2022-10-15T06:08:56.679Z,1004.33
2022-10-15T06:09:55.791Z,1004.35
2022-10-15T06:10:55.773Z,1004.39
2022-10-15T06:11:56.725Z,1004.35
2022-10-15T06:12:56.610Z,1004.33
2022-10-15T06:13:55.753Z,1004.34
2022-10-15T06:14:56.612Z,1004.39
2022-10-15T06:15:55.732Z,1004.37
2022-10-15T06:16:55.691Z,1004.36
2022-10-15T06:17:55.675Z,1004.39
2022-10-15T06:18:55.683Z,1004.39
2022-10-15T06:19:55.678Z,1004.42
2022-10-15T06:20:55.657Z,1004.36
2022-10-15T06:21:56.465Z,1004.41
2022-10-15T06:22:56.617Z,1004.41
2022-10-15T06:23:56.529Z,1004.43
2022-10-15T06:24:55.586Z,1004.43
2022-10-15T06:25:55.608Z,1004.48
2022-10-15T06:26:56.045Z,1004.46
2022-10-15T06:27:55.561Z,1004.43
2022-10-15T06:28:55.587Z,1004.48
2022-10-15T06:29:56.058Z,1004.48
2022-10-15T06:30:55.512Z,1004.53
2022-10-15T06:31:55.547Z,1004.51
2022-10-15T06:32:55.507Z,1004.53
2022-10-15T06:33:55.494Z,1004.51
2022-10-15T06:34:56.558Z,1004.53
2022-10-15T06:35:56.389Z,1004.52
2022-10-15T06:36:55.408Z,1004.54
2022-10-15T06:38:00.628Z,1004.54
2022-10-15T06:38:56.379Z,1004.57
2022-10-15T06:39:56.305Z,1004.62
2022-10-15T06:40:56.168Z,1004.65
2022-10-15T06:41:55.360Z,1004.67
2022-10-15T06:42:56.270Z,1004.69
2022-10-15T06:43:56.134Z,1004.67
2022-10-15T06:44:56.301Z,1004.72
2022-10-15T06:45:56.200Z,1004.72
2022-10-15T06:46:55.301Z,1004.73
2022-10-15T06:47:56.274Z,1004.72
2022-10-15T06:48:55.237Z,1004.80
2022-10-15T06:49:55.231Z,1004.80
2022-10-15T06:50:56.018Z,1004.83
2022-10-15T06:52:00.996Z,1004.78
2022-10-15T06:52:56.415Z,1004.82
2022-10-15T06:53:56.050Z,1004.82
2022-10-15T06:54:56.102Z,1004.83
2022-10-15T06:55:56.003Z,1004.79
2022-10-15T06:56:55.183Z,1004.78
2022-10-15T06:57:55.153Z,1004.76
2022-10-15T06:58:55.094Z,1004.77
2022-10-15T06:59:55.109Z,1004.80
2022-10-15T07:00:56.042Z,1004.82
2022-10-15T07:01:55.678Z,1004.82
2022-10-15T07:02:55.517Z,1004.79
2022-10-15T07:03:55.374Z,1004.83
2022-10-15T07:04:55.946Z,1004.83
2022-10-15T07:05:55.861Z,1004.81
2022-10-15T07:06:55.026Z,1004.84
2022-10-15T07:07:55.018Z,1004.84
2022-10-15T07:08:54.947Z,1004.88
2022-10-15T07:09:55.949Z,1004.92
2022-10-15T07:10:54.919Z,1004.93
2022-10-15T07:11:55.748Z,1004.89
2022-10-15T07:12:55.649Z,1004.96
2022-10-15T07:13:55.815Z,1004.94
2022-10-15T07:14:54.949Z,1004.96
2022-10-15T07:15:54.877Z,1005.01
2022-10-15T07:16:55.790Z,1005.00
2022-10-15T07:17:55.689Z,1005.02
2022-10-15T07:18:54.840Z,1005.02
2022-10-15T07:19:54.867Z,1005.02
2022-10-15T07:20:54.762Z,1005.00
2022-10-15T07:21:55.563Z,1004.98
2022-10-15T07:22:55.743Z,1005.01
2022-10-15T07:23:54.842Z,1005.03
2022-10-15T07:24:54.732Z,1005.02
2022-10-15T07:25:55.684Z,1005.03
2022-10-15T07:26:55.591Z,1005.04
2022-10-15T07:27:54.685Z,1005.05
2022-10-15T07:28:54.720Z,1005.09
2022-10-15T07:29:54.683Z,1005.14
2022-10-15T07:30:54.848Z,1005.10
2022-10-15T07:31:55.623Z,1005.08
2022-10-15T07:32:55.527Z,1005.11
2022-10-15T07:33:54.837Z,1005.11
2022-10-15T07:34:54.857Z,1005.10
2022-10-15T07:35:54.786Z,1005.08
2022-10-15T07:36:55.448Z,1005.10
2022-10-15T07:37:54.557Z,1005.12
2022-10-15T07:38:55.465Z,1005.13
2022-10-15T07:39:55.988Z,1005.16
2022-10-15T07:40:54.505Z,1005.05
2022-10-15T07:41:54.693Z,1005.11
2022-10-15T07:42:54.491Z,1005.13
2022-10-15T07:43:55.240Z,1005.13
2022-10-15T07:44:54.469Z,1005.13
2022-10-15T07:45:55.304Z,1005.12
2022-10-15T07:46:54.505Z,1005.05
2022-10-15T07:47:54.840Z,1005.09
2022-10-15T07:48:54.859Z,1005.13
2022-10-15T07:49:54.450Z,1005.11
2022-10-15T07:50:54.372Z,1005.09
2022-10-15T07:51:54.841Z,1005.14
2022-10-15T07:52:55.178Z,1005.20
2022-10-15T07:53:54.332Z,1005.19
2022-10-15T07:54:54.301Z,1005.19
2022-10-15T07:55:54.774Z,1005.24
2022-10-15T07:56:54.245Z,1005.21
2022-10-15T07:57:55.182Z,1005.22
2022-10-15T07:58:54.272Z,1005.21
2022-10-15T07:59:55.238Z,1005.20
2022-10-15T08:00:54.233Z,1005.22
2022-10-15T08:01:54.198Z,1005.30
2022-10-15T08:02:54.194Z,1005.25
2022-10-15T08:03:55.112Z,1005.30
2022-10-15T08:04:54.255Z,1005.30
2022-10-15T08:05:54.135Z,1005.28
2022-10-15T08:06:54.255Z,1005.30
2022-10-15T08:07:54.155Z,1005.32
2022-10-15T08:08:54.109Z,1005.27
2022-10-15T08:09:54.082Z,1005.24
2022-10-15T08:10:54.115Z,1005.28
2022-10-15T08:11:54.860Z,1005.25
2022-10-15T08:12:54.209Z,1005.29
2022-10-15T08:13:54.919Z,1005.24
2022-10-15T08:14:54.817Z,1005.27
2022-10-15T08:15:57.724Z,1005.25
2022-10-15T08:16:55.987Z,1005.30
2022-10-15T08:17:54.792Z,1005.30
2022-10-15T08:18:53.975Z,1005.26
2022-10-15T08:19:54.855Z,1005.27
2022-10-15T08:20:53.982Z,1005.34
2022-10-15T08:21:54.667Z,1005.30
2022-10-15T08:22:53.895Z,1005.32
2022-10-15T08:23:54.724Z,1005.28
2022-10-15T08:24:54.276Z,1005.33
2022-10-15T08:25:53.880Z,1005.34
2022-10-15T08:26:54.265Z,1005.34
2022-10-15T08:27:54.268Z,1005.37
2022-10-15T08:28:54.821Z,1005.38
2022-10-15T08:29:54.277Z,1005.35
2022-10-15T08:30:53.800Z,1005.35
2022-10-15T08:31:53.778Z,1005.32
2022-10-15T08:32:54.633Z,1005.39
2022-10-15T08:33:54.536Z,1005.36
2022-10-15T08:34:53.743Z,1005.37
2022-10-15T08:35:53.714Z,1005.40
2022-10-15T08:36:53.680Z,1005.38
2022-10-15T08:37:53.681Z,1005.45
2022-10-15T08:38:53.701Z,1005.37
2022-10-15T08:39:53.673Z,1005.43
2022-10-15T08:40:53.665Z,1005.43
2022-10-15T08:41:53.609Z,1005.40
2022-10-15T08:42:53.621Z,1005.44
2022-10-15T08:43:53.694Z,1005.37
2022-10-15T08:44:54.502Z,1005.39
2022-10-15T08:45:54.402Z,1005.40
2022-10-15T08:46:54.573Z,1005.42
2022-10-15T08:47:53.564Z,1005.40
2022-10-15T08:48:53.533Z,1005.40
2022-10-15T08:49:53.724Z,1005.45
2022-10-15T08:50:54.109Z,1005.45
2022-10-15T08:51:53.685Z,1005.45
2022-10-15T08:52:54.255Z,1005.43
2022-10-15T08:53:53.693Z,1005.41
2022-10-15T08:54:53.480Z,1005.46
2022-10-15T08:55:53.691Z,1005.46
2022-10-15T08:56:53.696Z,1005.44
2022-10-15T08:57:54.282Z,1005.41
2022-10-15T08:58:53.696Z,1005.37
2022-10-15T08:59:53.385Z,1005.40
2022-10-15T09:00:53.384Z,1005.44
2022-10-15T09:01:53.378Z,1005.43
2022-10-15T09:02:53.731Z,1005.42
2022-10-15T09:03:53.330Z,1005.45
2022-10-15T09:04:53.350Z,1005.45
2022-10-15T09:05:53.268Z,1005.45
2022-10-15T09:06:53.711Z,1005.49
2022-10-15T09:07:54.531Z,1005.43
2022-10-15T09:08:53.270Z,1005.43
2022-10-15T09:09:53.702Z,1005.41
2022-10-15T09:10:53.242Z,1005.41
2022-10-15T09:11:53.204Z,1005.50
2022-10-15T09:12:53.164Z,1005.49
2022-10-15T09:13:53.201Z,1005.48
2022-10-15T09:14:55.669Z,1005.46
2022-10-15T09:15:53.332Z,1005.43
2022-10-15T09:16:53.192Z,1005.46
2022-10-15T09:17:53.103Z,1005.43
2022-10-15T09:18:53.488Z,1005.43
2022-10-15T09:19:53.074Z,1005.47
2022-10-15T09:20:53.595Z,1005.46
2022-10-15T09:21:54.028Z,1005.49
2022-10-15T09:22:53.072Z,1005.48
2022-10-15T09:23:53.033Z,1005.40
2022-10-15T09:24:53.059Z,1005.40
2022-10-15T09:25:53.005Z,1005.42
2022-10-15T09:26:53.011Z,1005.37
2022-10-15T09:27:52.955Z,1005.42
2022-10-15T09:28:53.072Z,1005.43
2022-10-15T09:29:52.986Z,1005.36
2022-10-15T09:30:52.932Z,1005.41
2022-10-15T09:31:52.951Z,1005.44
2022-10-15T09:32:54.529Z,1005.42
2022-10-15T09:33:53.900Z,1005.41
2022-10-15T09:34:52.878Z,1005.37
2022-10-15T09:35:52.898Z,1005.33
2022-10-15T09:36:52.868Z,1005.36
2022-10-15T09:37:53.062Z,1005.36
2022-10-15T09:38:53.016Z,1005.34
2022-10-15T09:39:52.803Z,1005.31
2022-10-15T09:40:52.821Z,1005.31
2022-10-15T09:41:53.036Z,1005.28
2022-10-15T09:42:53.557Z,1005.31
2022-10-15T09:43:52.751Z,1005.24
2022-10-15T09:44:53.003Z,1005.25
2022-10-15T09:45:52.726Z,1005.24
2022-10-15T09:46:52.728Z,1005.22
2022-10-15T09:47:52.721Z,1005.24
2022-10-15T09:48:52.684Z,1005.25
2022-10-15T09:49:53.646Z,1005.29
2022-10-15T09:50:53.545Z,1005.24
2022-10-15T09:51:52.634Z,1005.25
2022-10-15T09:52:52.659Z,1005.21
2022-10-15T09:53:52.610Z,1005.23
2022-10-15T09:54:52.606Z,1005.21
2022-10-15T09:55:52.640Z,1005.24
2022-10-15T09:56:52.577Z,1005.22
2022-10-15T09:57:53.996Z,1005.25
2022-10-15T09:58:53.547Z,1005.29
2022-10-15T09:59:53.470Z,1005.23
2022-10-15T10:00:53.349Z,1005.22
2022-10-15T10:01:52.554Z,1005.25
2022-10-15T10:02:52.499Z,1005.27
2022-10-15T10:03:52.500Z,1005.32
2022-10-15T10:04:52.449Z,1005.31
2022-10-15T10:05:53.380Z,1005.33
2022-10-15T10:06:52.500Z,1005.34
2022-10-15T10:07:52.413Z,1005.33
2022-10-15T10:08:52.408Z,1005.31
2022-10-15T10:09:52.403Z,1005.33
2022-10-15T10:10:53.039Z,1005.34
2022-10-15T10:11:52.385Z,1005.32
2022-10-15T10:12:52.351Z,1005.34
2022-10-15T10:13:52.365Z,1005.32
2022-10-15T10:14:53.282Z,1005.32
2022-10-15T10:15:57.596Z,1005.36
2022-10-15T10:16:53.362Z,1005.34
2022-10-15T10:17:52.335Z,1005.34
2022-10-15T10:18:53.155Z,1005.26
2022-10-15T10:19:52.445Z,1005.29
2022-10-15T10:20:52.224Z,1005.24
2022-10-15T10:21:52.504Z,1005.23
2022-10-15T10:22:52.248Z,1005.21
2022-10-15T10:23:52.217Z,1005.17
2022-10-15T10:24:52.166Z,1005.24
2022-10-15T10:25:53.007Z,1005.18
2022-10-15T10:26:52.183Z,1005.22
2022-10-15T10:27:52.817Z,1005.22
2022-10-15T10:28:57.122Z,1005.23
2022-10-15T10:29:53.113Z,1005.25
2022-10-15T10:30:52.968Z,1005.19
2022-10-15T10:31:52.936Z,1005.12
2022-10-15T10:32:52.912Z,1005.20
2022-10-15T10:33:52.999Z,1005.19
2022-10-15T10:34:53.087Z,1005.20
2022-10-15T10:35:52.039Z,1005.20
2022-10-15T10:36:52.119Z,1005.17
2022-10-15T10:37:52.497Z,1005.18
2022-10-15T10:38:52.632Z,1005.15
2022-10-15T10:39:52.261Z,1005.18
2022-10-15T10:40:52.141Z,1005.17
2022-10-15T10:41:52.416Z,1005.14
2022-10-15T10:42:52.231Z,1005.13
2022-10-15T10:43:52.404Z,1005.16
2022-10-15T10:44:52.461Z,1005.13
2022-10-15T10:45:52.283Z,1005.18
2022-10-15T10:46:52.182Z,1005.18
2022-10-15T10:47:52.114Z,1005.21
2022-10-15T10:48:52.134Z,1005.16
2022-10-15T10:49:52.233Z,1005.15
2022-10-15T10:50:51.887Z,1005.10
2022-10-15T10:51:52.214Z,1005.12
2022-10-15T10:52:52.276Z,1005.12
2022-10-15T10:53:53.424Z,1005.16
2022-10-15T10:54:52.539Z,1005.20
2022-10-15T10:55:52.050Z,1005.21
2022-10-15T10:56:52.395Z,1005.21
2022-10-15T10:57:52.096Z,1005.24
2022-10-15T10:58:51.997Z,1005.24
2022-10-15T10:59:52.289Z,1005.21
2022-10-15T11:00:51.910Z,1005.26
2022-10-15T11:01:51.700Z,1005.22
2022-10-15T11:02:51.872Z,1005.19
2022-10-15T11:03:52.304Z,1005.19
2022-10-15T11:04:52.223Z,1005.17
2022-10-15T11:05:51.918Z,1005.11
2022-10-15T11:06:51.861Z,1005.09
2022-10-15T11:07:52.611Z,1005.08
2022-10-15T11:08:51.710Z,1005.09
2022-10-15T11:09:55.383Z,1005.11
2022-10-15T11:10:51.620Z,1005.12
2022-10-15T11:11:51.582Z,1005.09
2022-10-15T11:12:51.551Z,1005.07
2022-10-15T11:13:51.472Z,1005.09
2022-10-15T11:14:52.131Z,1005.09
2022-10-15T11:15:51.573Z,1005.06
2022-10-15T11:16:51.454Z,1005.11
2022-10-15T11:17:51.406Z,1005.11
2022-10-15T11:18:51.647Z,1005.16
2022-10-15T11:20:12.552Z,1005.10
2022-10-15T11:20:58.784Z,1005.19
2022-10-15T11:21:52.933Z,1005.17
2022-10-15T11:22:51.523Z,1005.18
2022-10-15T11:23:51.806Z,1005.14
2022-10-15T11:25:06.000Z,1005.14
2022-10-15T11:25:52.869Z,1005.21
2022-10-15T11:27:06.564Z,1005.15
2022-10-15T11:27:52.568Z,1005.14
2022-10-15T11:28:51.734Z,1005.16
2022-10-15T11:29:51.532Z,1005.17
2022-10-15T11:30:51.779Z,1005.21
2022-10-15T11:32:02.140Z,1005.17
2022-10-15T11:33:06.780Z,1005.22
2022-10-15T11:33:52.351Z,1005.20
2022-10-15T11:34:51.581Z,1005.20
2022-10-15T11:35:53.708Z,1005.21
2022-10-15T11:36:51.243Z,1005.19
2022-10-15T11:37:52.113Z,1005.17
2022-10-15T11:38:51.218Z,1005.14
2022-10-15T11:39:51.192Z,1005.24
2022-10-15T11:40:52.303Z,1005.22
2022-10-15T11:41:51.163Z,1005.24
2022-10-15T11:42:51.199Z,1005.22
2022-10-15T11:43:51.766Z,1005.23
2022-10-15T11:44:52.336Z,1005.17
2022-10-15T11:45:51.175Z,1005.12
2022-10-15T11:46:51.617Z,1005.14
2022-10-15T11:47:51.015Z,1005.12
2022-10-15T11:48:51.986Z,1005.11
2022-10-15T11:49:51.274Z,1005.17
2022-10-15T11:50:51.306Z,1005.13
2022-10-15T11:51:50.940Z,1005.16
2022-10-15T11:52:51.156Z,1005.14
2022-10-15T11:53:52.116Z,1005.13
2022-10-15T11:54:51.015Z,1005.14
2022-10-15T11:55:50.958Z,1005.14
2022-10-15T11:56:50.949Z,1005.14
2022-10-15T11:57:50.893Z,1005.12
2022-10-15T11:58:51.608Z,1005.13
2022-10-15T11:59:51.111Z,1005.15
2022-10-15T12:00:51.164Z,1005.15
2022-10-15T12:01:51.222Z,1005.08
2022-10-15T12:02:50.985Z,1005.10
2022-10-15T12:03:50.954Z,1005.14
2022-10-15T12:04:51.197Z,1005.11
2022-10-15T12:05:51.247Z,1005.09
2022-10-15T12:06:51.207Z,1005.14
2022-10-15T12:07:50.944Z,1005.02
2022-10-15T12:08:50.707Z,1005.05
2022-10-15T12:09:50.833Z,1005.06